Time,TemperatureF,DewpointF,PressureIn,WindDirection,WindDirectionDegrees,WindSpeedMPH,WindSpeedGustMPH,Humidity,HourlyPrecipIn,Conditions,Clouds,dailyrainin,SoftwareType,DateUTC
2013-11-26 00:00:00,29.5,14.9,30.25,North,354,5.0,5.0,54,0.00,,,0.00,VWS V14.01,2013-11-26 06:00:00,
2013-11-26 00:05:00,29.4,15.2,30.25,North,354,5.0,7.0,55,0.00,,,0.00,VWS V14.01,2013-11-26 06:05:00,
2013-11-26 00:10:00,29.4,15.2,30.25,North,354,2.0,7.0,55,0.00,,,0.00,VWS V14.01,2013-11-26 06:10:00,
2013-11-26 00:15:00,29.3,14.7,30.25,NW,311,2.0,7.0,54,0.00,,,0.00,VWS V14.01,2013-11-26 06:15:00,
2013-11-26 00:20:00,29.4,15.7,30.25,North,359,4.0,7.0,56,0.00,,,0.00,VWS V14.01,2013-11-26 06:20:00,
2013-11-26 00:25:00,29.4,14.8,30.25,NNW,339,3.0,7.0,54,0.00,,,0.00,VWS V14.01,2013-11-26 06:25:00,
2013-11-26 00:30:00,29.3,15.6,30.25,North,354,3.0,7.0,56,0.00,,,0.00,VWS V14.01,2013-11-26 06:30:00,
2013-11-26 00:35:00,29.1,15.4,30.25,NNW,332,2.0,6.0,56,0.00,,,0.00,VWS V14.01,2013-11-26 06:35:00,
2013-11-26 00:40:00,29.0,15.3,30.25,North,359,0.0,6.0,56,0.00,,,0.00,VWS V14.01,2013-11-26 06:40:00,
2013-11-26 00:45:00,28.5,15.6,30.25,North,357,2.0,6.0,58,0.00,,,0.00,VWS V14.01,2013-11-26 06:45:00,
2013-11-26 00:50:00,28.1,15.6,30.25,NNW,336,2.0,3.0,59,0.00,,,0.00,VWS V14.01,2013-11-26 06:50:00,
2013-11-26 00:55:00,27.6,15.9,30.25,NNW,336,0.0,4.0,61,0.00,,,0.00,VWS V14.01,2013-11-26 06:55:00,
2013-11-26 01:00:00,27.2,16.6,30.25,NNW,336,0.0,4.0,64,0.00,,,0.00,VWS V14.01,2013-11-26 07:00:00,
2013-11-26 01:05:00,26.9,16.0,30.25,NNW,336,0.0,2.0,63,0.00,,,0.00,VWS V14.01,2013-11-26 07:05:00,
2013-11-26 01:10:00,26.6,16.4,30.25,NNW,335,1.0,3.0,65,0.00,,,0.00,VWS V14.01,2013-11-26 07:10:00,
2013-11-26 01:15:00,26.3,16.5,30.25,NNW,335,0.0,3.0,66,0.00,,,0.00,VWS V14.01,2013-11-26 07:15:00,
2013-11-26 01:20:00,26.1,16.3,30.25,NNW,343,1.0,3.0,66,0.00,,,0.00,VWS V14.01,2013-11-26 07:20:00,
2013-11-26 01:25:00,26.3,16.1,30.25,NNW,336,2.0,5.0,65,0.00,,,0.00,VWS V14.01,2013-11-26 07:25:00,
2013-11-26 01:30:00,26.6,16.1,30.25,NNW,346,2.0,6.0,64,0.00,,,0.00,VWS V14.01,2013-11-26 07:30:00,
2013-11-26 01:35:00,27.0,16.5,30.25,NW,326,1.0,5.0,64,0.00,,,0.00,VWS V14.01,2013-11-26 07:35:00,
2013-11-26 01:40:00,27.2,15.9,30.25,NNW,332,2.0,5.0,62,0.00,,,0.00,VWS V14.01,2013-11-26 07:40:00,
2013-11-26 01:45:00,27.3,15.6,30.25,NNW,339,3.0,7.0,61,0.00,,,0.00,VWS V14.01,2013-11-26 07:45:00,
2013-11-26 01:50:00,27.5,16.6,30.26,NNW,346,2.0,3.0,63,0.00,,,0.00,VWS V14.01,2013-11-26 07:50:00,
2013-11-26 01:55:00,27.5,15.4,30.26,NNW,330,3.0,5.0,60,0.00,,,0.00,VWS V14.01,2013-11-26 07:55:00,
2013-11-26 02:00:00,27.5,15.8,30.26,NNW,340,2.0,5.0,61,0.00,,,0.00,VWS V14.01,2013-11-26 08:00:00,
2013-11-26 02:05:00,27.3,15.6,30.26,NNW,333,2.0,4.0,61,0.00,,,0.00,VWS V14.01,2013-11-26 08:05:00,
2013-11-26 02:10:00,27.2,15.9,30.26,NNW,329,1.0,7.0,62,0.00,,,0.00,VWS V14.01,2013-11-26 08:10:00,
2013-11-26 02:15:00,27.2,15.6,30.26,North,349,2.0,7.0,61,0.00,,,0.00,VWS V14.01,2013-11-26 08:15:00,
2013-11-26 02:20:00,27.2,15.6,30.26,North,359,2.0,6.0,61,0.00,,,0.00,VWS V14.01,2013-11-26 08:20:00,
2013-11-26 02:25:00,27.3,15.6,30.26,NNW,335,3.0,6.0,61,0.00,,,0.00,VWS V14.01,2013-11-26 08:25:00,
2013-11-26 02:30:00,27.3,15.6,30.26,NNW,333,3.0,6.0,61,0.00,,,0.00,VWS V14.01,2013-11-26 08:30:00,
2013-11-26 02:35:00,27.5,15.8,30.26,North,359,4.0,7.0,61,0.00,,,0.00,VWS V14.01,2013-11-26 08:35:00,
2013-11-26 02:40:00,27.5,15.8,30.26,NNW,344,2.0,7.0,61,0.00,,,0.00,VWS V14.01,2013-11-26 08:40:00,
2013-11-26 02:45:00,27.6,14.8,30.26,NNW,339,2.0,7.0,58,0.00,,,0.00,VWS V14.01,2013-11-26 08:45:00,
2013-11-26 02:50:00,27.6,15.2,30.25,North,352,3.0,7.0,59,0.00,,,0.00,VWS V14.01,2013-11-26 08:50:00,
2013-11-26 02:55:00,27.6,14.8,30.25,NNW,342,1.0,7.0,58,0.00,,,0.00,VWS V14.01,2013-11-26 08:55:00,
2013-11-26 03:00:00,27.5,15.1,30.25,WNW,292,1.0,7.0,59,0.00,,,0.00,VWS V14.01,2013-11-26 09:00:00,
2013-11-26 03:05:00,27.3,15.6,30.25,NW,319,3.0,5.0,61,0.00,,,0.00,VWS V14.01,2013-11-26 09:05:00,
2013-11-26 03:10:00,27.2,15.2,30.25,NNW,340,2.0,7.0,60,0.00,,,0.00,VWS V14.01,2013-11-26 09:10:00,
2013-11-26 03:15:00,26.9,14.5,30.25,North,359,6.0,9.0,59,0.00,,,0.00,VWS V14.01,2013-11-26 09:15:00,
2013-11-26 03:20:00,26.7,14.3,30.26,North,357,6.0,11.0,59,0.00,,,0.00,VWS V14.01,2013-11-26 09:20:00,
2013-11-26 03:25:00,26.7,15.4,30.26,NW,325,5.0,11.0,62,0.00,,,0.00,VWS V14.01,2013-11-26 09:25:00,
2013-11-26 03:30:00,26.7,15.4,30.26,NNW,335,3.0,11.0,62,0.00,,,0.00,VWS V14.01,2013-11-26 09:30:00,
2013-11-26 03:35:00,26.6,15.0,30.26,North,354,5.0,9.0,61,0.00,,,0.00,VWS V14.01,2013-11-26 09:35:00,
2013-11-26 03:40:00,26.6,15.0,30.26,North,0,10.0,13.0,61,0.00,,,0.00,VWS V14.01,2013-11-26 09:40:00,
2013-11-26 03:45:00,26.6,14.6,30.26,North,354,6.0,14.0,60,0.00,,,0.00,VWS V14.01,2013-11-26 09:45:00,
2013-11-26 03:50:00,26.4,15.5,30.26,North,354,13.0,15.0,63,0.00,,,0.00,VWS V14.01,2013-11-26 09:50:00,
2013-11-26 03:55:00,26.3,15.1,30.26,NNW,340,6.0,17.0,62,0.00,,,0.00,VWS V14.01,2013-11-26 09:55:00,
2013-11-26 04:00:00,26.4,14.4,30.26,North,359,17.0,17.0,60,0.00,,,0.00,VWS V14.01,2013-11-26 10:00:00,
2013-11-26 04:05:00,26.4,14.4,30.27,North,350,12.0,14.0,60,0.00,,,0.00,VWS V14.01,2013-11-26 10:05:00,
2013-11-26 04:10:00,26.4,14.8,30.27,North,0,10.0,14.0,61,0.00,,,0.00,VWS V14.01,2013-11-26 10:10:00,
2013-11-26 04:15:00,26.3,13.9,30.27,North,359,12.0,17.0,59,0.00,,,0.00,VWS V14.01,2013-11-26 10:15:00,
2013-11-26 04:20:00,26.4,14.8,30.27,North,359,12.0,17.0,61,0.00,,,0.00,VWS V14.01,2013-11-26 10:20:00,
2013-11-26 04:25:00,26.6,14.6,30.27,North,359,12.0,17.0,60,0.00,,,0.00,VWS V14.01,2013-11-26 10:25:00,
2013-11-26 04:30:00,26.4,14.8,30.27,North,359,13.0,17.0,61,0.00,,,0.00,VWS V14.01,2013-11-26 10:30:00,
2013-11-26 04:35:00,26.1,14.1,30.27,NNW,336,7.0,14.0,60,0.00,,,0.00,VWS V14.01,2013-11-26 10:35:00,
2013-11-26 04:40:00,26.1,15.2,30.27,North,352,11.0,14.0,63,0.00,,,0.00,VWS V14.01,2013-11-26 10:40:00,
2013-11-26 04:45:00,26.1,14.9,30.27,North,354,13.0,15.0,62,0.00,,,0.00,VWS V14.01,2013-11-26 10:45:00,
2013-11-26 04:50:00,26.1,15.2,30.28,North,349,12.0,14.0,63,0.00,,,0.00,VWS V14.01,2013-11-26 10:50:00,
2013-11-26 04:55:00,26.3,15.4,30.28,North,359,10.0,16.0,63,0.00,,,0.00,VWS V14.01,2013-11-26 10:55:00,
2013-11-26 05:00:00,26.1,15.6,30.28,North,353,11.0,16.0,64,0.00,,,0.00,VWS V14.01,2013-11-26 11:00:00,
2013-11-26 05:05:00,26.0,15.9,30.28,North,354,12.0,14.0,65,0.00,,,0.00,VWS V14.01,2013-11-26 11:05:00,
2013-11-26 05:10:00,25.8,15.7,30.28,North,349,10.0,14.0,65,0.00,,,0.00,VWS V14.01,2013-11-26 11:10:00,
2013-11-26 05:15:00,25.6,15.5,30.28,North,359,9.0,15.0,65,0.00,,,0.00,VWS V14.01,2013-11-26 11:15:00,
2013-11-26 05:20:00,25.6,15.1,30.29,North,354,10.0,17.0,64,0.00,,,0.00,VWS V14.01,2013-11-26 11:20:00,
2013-11-26 05:26:00,26.1,14.5,30.29,North,359,12.0,18.0,61,0.00,,,0.00,VWS V14.01,2013-11-26 11:26:00,
2013-11-26 05:31:00,26.6,14.6,30.29,North,356,14.0,18.0,60,0.00,,,0.00,VWS V14.01,2013-11-26 11:31:00,
2013-11-26 05:36:00,27.0,14.2,30.29,North,350,7.0,17.0,58,0.00,,,0.00,VWS V14.01,2013-11-26 11:36:00,
2013-11-26 05:41:00,27.3,14.5,30.29,NNW,346,10.0,18.0,58,0.00,,,0.00,VWS V14.01,2013-11-26 11:41:00,
2013-11-26 05:46:00,27.0,14.2,30.29,North,359,12.0,19.0,58,0.00,,,0.00,VWS V14.01,2013-11-26 11:46:00,
2013-11-26 05:51:00,26.3,14.3,30.29,NNW,347,6.0,14.0,60,0.00,,,0.00,VWS V14.01,2013-11-26 11:51:00,
2013-11-26 05:56:00,26.0,14.8,30.29,North,359,12.0,17.0,62,0.00,,,0.00,VWS V14.01,2013-11-26 11:56:00,
2013-11-26 06:01:00,26.0,15.1,30.29,North,354,14.0,18.0,63,0.00,,,0.00,VWS V14.01,2013-11-26 12:01:00,
2013-11-26 06:06:00,26.6,15.4,30.30,North,356,18.0,18.0,62,0.00,,,0.00,VWS V14.01,2013-11-26 12:06:00,
2013-11-26 06:11:00,27.3,15.6,30.30,North,359,10.0,21.0,61,0.00,,,0.00,VWS V14.01,2013-11-26 12:11:00,
2013-11-26 06:16:00,27.2,15.9,30.30,North,349,12.0,21.0,62,0.00,,,0.00,VWS V14.01,2013-11-26 12:16:00,
2013-11-26 06:21:00,26.9,15.6,30.31,North,354,13.0,14.0,62,0.00,,,0.00,VWS V14.01,2013-11-26 12:21:00,
2013-11-26 06:26:00,26.6,16.1,30.31,North,354,10.0,18.0,64,0.00,,,0.00,VWS V14.01,2013-11-26 12:26:00,
2013-11-26 06:31:00,26.3,15.8,30.31,North,354,14.0,18.0,64,0.00,,,0.00,VWS V14.01,2013-11-26 12:31:00,
2013-11-26 06:36:00,26.1,15.6,30.31,North,356,13.0,18.0,64,0.00,,,0.00,VWS V14.01,2013-11-26 12:36:00,
2013-11-26 06:41:00,26.1,16.0,30.31,North,359,12.0,19.0,65,0.00,,,0.00,VWS V14.01,2013-11-26 12:41:00,
2013-11-26 06:46:00,26.1,15.2,30.31,North,359,17.0,19.0,63,0.00,,,0.00,VWS V14.01,2013-11-26 12:46:00,
2013-11-26 06:51:00,26.0,15.5,30.32,North,354,11.0,16.0,64,0.00,,,0.00,VWS V14.01,2013-11-26 12:51:00,
2013-11-26 06:56:00,25.7,15.6,30.32,North,352,14.0,17.0,65,0.00,,,0.00,VWS V14.01,2013-11-26 12:56:00,
2013-11-26 07:01:00,25.8,16.4,30.32,North,352,14.0,17.0,67,0.00,,,0.00,VWS V14.01,2013-11-26 13:01:00,
2013-11-26 07:06:00,26.0,16.2,30.33,North,0,16.0,17.0,66,0.00,,,0.00,VWS V14.01,2013-11-26 13:06:00,
2013-11-26 07:11:00,26.0,15.9,30.33,North,350,12.0,17.0,65,0.00,,,0.00,VWS V14.01,2013-11-26 13:11:00,
2013-11-26 07:16:00,25.8,15.7,30.33,North,359,6.0,17.0,65,0.00,,,0.00,VWS V14.01,2013-11-26 13:16:00,
2013-11-26 07:21:00,25.7,15.9,30.34,North,354,10.0,14.0,66,0.00,,,0.00,VWS V14.01,2013-11-26 13:21:00,
2013-11-26 07:26:00,25.8,16.4,30.34,North,353,12.0,19.0,67,0.00,,,0.00,VWS V14.01,2013-11-26 13:26:00,
2013-11-26 07:31:00,26.3,17.2,30.34,North,354,12.0,19.0,68,0.00,,,0.00,VWS V14.01,2013-11-26 13:31:00,
2013-11-26 07:36:00,26.6,17.8,30.35,North,359,12.0,14.0,69,0.00,,,0.00,VWS V14.01,2013-11-26 13:36:00,
2013-11-26 07:41:00,26.7,17.6,30.35,North,1,12.0,16.0,68,0.00,,,0.00,VWS V14.01,2013-11-26 13:41:00,
2013-11-26 07:46:00,26.7,17.9,30.35,North,0,11.0,16.0,69,0.00,,,0.00,VWS V14.01,2013-11-26 13:46:00,
2013-11-26 07:51:00,26.7,18.6,30.34,North,352,13.0,14.0,71,0.00,,,0.00,VWS V14.01,2013-11-26 13:51:00,
2013-11-26 07:56:00,26.7,17.6,30.34,North,3,13.0,15.0,68,0.00,,,0.00,VWS V14.01,2013-11-26 13:56:00,
2013-11-26 08:01:00,26.7,17.9,30.34,North,359,10.0,15.0,69,0.00,,,0.00,VWS V14.01,2013-11-26 14:01:00,
2013-11-26 08:06:00,26.9,17.8,30.35,North,354,12.0,17.0,68,0.00,,,0.00,VWS V14.01,2013-11-26 14:06:00,
2013-11-26 08:11:00,26.9,18.1,30.35,North,354,14.0,17.0,69,0.00,,,0.00,VWS V14.01,2013-11-26 14:11:00,
2013-11-26 08:16:00,27.0,17.9,30.35,North,359,10.0,17.0,68,0.00,,,0.00,VWS V14.01,2013-11-26 14:16:00,
2013-11-26 08:21:00,27.0,17.5,30.36,North,359,10.0,14.0,67,0.00,,,0.00,VWS V14.01,2013-11-26 14:21:00,
2013-11-26 08:26:00,27.0,18.2,30.36,North,354,12.0,14.0,69,0.00,,,0.00,VWS V14.01,2013-11-26 14:26:00,
2013-11-26 08:31:00,27.0,17.9,30.36,North,359,12.0,14.0,68,0.00,,,0.00,VWS V14.01,2013-11-26 14:31:00,
2013-11-26 08:36:00,27.0,18.9,30.37,North,354,10.0,14.0,71,0.00,,,0.00,VWS V14.01,2013-11-26 14:36:00,
2013-11-26 08:41:00,26.9,19.1,30.37,North,359,12.0,15.0,72,0.00,,,0.00,VWS V14.01,2013-11-26 14:41:00,
2013-11-26 08:46:00,26.9,18.8,30.37,North,359,11.0,15.0,71,0.00,,,0.00,VWS V14.01,2013-11-26 14:46:00,
2013-11-26 08:51:00,27.0,19.2,30.38,North,0,7.0,13.0,72,0.00,,,0.00,VWS V14.01,2013-11-26 14:51:00,
2013-11-26 08:56:00,27.2,19.7,30.38,North,359,12.0,15.0,73,0.00,,,0.00,VWS V14.01,2013-11-26 14:56:00,
2013-11-26 09:01:00,27.2,19.7,30.38,NNE,16,8.0,15.0,73,0.00,,,0.00,VWS V14.01,2013-11-26 15:01:00,
2013-11-26 09:06:00,27.3,18.8,30.39,North,359,13.0,20.0,70,0.00,,,0.00,VWS V14.01,2013-11-26 15:06:00,
2013-11-26 09:11:00,27.8,19.6,30.39,North,1,17.0,24.0,71,0.00,,,0.00,VWS V14.01,2013-11-26 15:11:00,
2013-11-26 09:16:00,28.1,19.9,30.39,North,3,13.0,24.0,71,0.00,,,0.00,VWS V14.01,2013-11-26 15:16:00,
2013-11-26 09:21:00,27.9,18.0,30.39,North,354,10.0,22.0,66,0.00,,,0.00,VWS V14.01,2013-11-26 15:21:00,
2013-11-26 09:26:00,27.9,18.7,30.39,NNE,24,10.0,22.0,68,0.00,,,0.00,VWS V14.01,2013-11-26 15:26:00,
2013-11-26 09:31:00,27.8,18.6,30.39,NNE,23,10.0,22.0,68,0.00,,,0.00,VWS V14.01,2013-11-26 15:31:00,
2013-11-26 09:36:00,27.9,19.1,30.40,NNE,20,12.0,21.0,69,0.00,,,0.00,VWS V14.01,2013-11-26 15:36:00,
2013-11-26 09:41:00,27.9,17.3,30.40,NE,37,11.0,21.0,64,0.00,,,0.00,VWS V14.01,2013-11-26 15:41:00,
2013-11-26 09:46:00,27.8,17.6,30.40,North,11,7.0,21.0,65,0.00,,,0.00,VWS V14.01,2013-11-26 15:46:00,
2013-11-26 09:51:00,27.8,17.2,30.41,North,0,17.0,18.0,64,0.00,,,0.00,VWS V14.01,2013-11-26 15:51:00,
2013-11-26 09:56:00,27.8,17.9,30.41,NNE,25,19.0,19.0,66,0.00,,,0.00,VWS V14.01,2013-11-26 15:56:00,
2013-11-26 10:01:00,27.8,17.9,30.41,North,359,14.0,22.0,66,0.00,,,0.00,VWS V14.01,2013-11-26 16:01:00,
2013-11-26 10:06:00,27.9,17.7,30.41,North,354,18.0,28.0,65,0.00,,,0.00,VWS V14.01,2013-11-26 16:06:00,
2013-11-26 10:11:00,28.1,18.2,30.41,North,359,14.0,28.0,66,0.00,,,0.00,VWS V14.01,2013-11-26 16:11:00,
2013-11-26 10:16:00,28.4,17.4,30.41,North,359,8.0,28.0,63,0.00,,,0.00,VWS V14.01,2013-11-26 16:16:00,
2013-11-26 10:21:00,28.2,18.0,30.42,North,359,20.0,25.0,65,0.00,,,0.00,VWS V14.01,2013-11-26 16:21:00,
2013-11-26 10:26:00,27.9,17.3,30.42,North,350,19.0,25.0,64,0.00,,,0.00,VWS V14.01,2013-11-26 16:26:00,
2013-11-26 10:31:00,28.1,18.2,30.42,North,0,15.0,25.0,66,0.00,,,0.00,VWS V14.01,2013-11-26 16:31:00,
2013-11-26 10:36:00,27.8,17.2,30.43,North,0,11.0,24.0,64,0.00,,,0.00,VWS V14.01,2013-11-26 16:36:00,
2013-11-26 10:41:00,27.6,17.0,30.43,North,0,12.0,24.0,64,0.00,,,0.00,VWS V14.01,2013-11-26 16:41:00,
2013-11-26 10:46:00,27.8,17.9,30.43,North,11,8.0,24.0,66,0.00,,,0.00,VWS V14.01,2013-11-26 16:46:00,
2013-11-26 10:51:00,27.8,17.2,30.44,North,0,17.0,17.0,64,0.00,,,0.00,VWS V14.01,2013-11-26 16:51:00,
2013-11-26 10:56:00,27.8,16.1,30.44,North,359,13.0,21.0,61,0.00,,,0.00,VWS V14.01,2013-11-26 16:56:00,
2013-11-26 11:01:00,28.4,15.1,30.44,North,0,12.0,21.0,57,0.00,,,0.00,VWS V14.01,2013-11-26 17:01:00,
2013-11-26 11:06:00,28.7,16.2,30.44,North,0,13.0,20.0,59,0.00,,,0.00,VWS V14.01,2013-11-26 17:06:00,
2013-11-26 11:11:00,28.7,15.4,30.44,NNE,13,7.0,20.0,57,0.00,,,0.00,VWS V14.01,2013-11-26 17:11:00,
2013-11-26 11:16:00,28.2,14.9,30.44,North,0,11.0,22.0,57,0.00,,,0.00,VWS V14.01,2013-11-26 17:16:00,
2013-11-26 11:21:00,28.7,16.6,30.45,North,1,10.0,24.0,60,0.00,,,0.00,VWS V14.01,2013-11-26 17:21:00,
2013-11-26 11:26:00,28.7,15.4,30.45,North,359,12.0,24.0,57,0.00,,,0.00,VWS V14.01,2013-11-26 17:26:00,
2013-11-26 11:31:00,29.0,15.7,30.45,North,359,16.0,24.0,57,0.00,,,0.00,VWS V14.01,2013-11-26 17:31:00,
2013-11-26 11:36:00,29.1,14.1,30.44,NE,47,16.0,19.0,53,0.00,,,0.00,VWS V14.01,2013-11-26 17:36:00,
2013-11-26 11:41:00,29.0,14.4,30.44,North,0,13.0,19.0,54,0.00,,,0.00,VWS V14.01,2013-11-26 17:41:00,
2013-11-26 11:46:00,29.3,14.3,30.44,North,350,13.0,19.0,53,0.00,,,0.00,VWS V14.01,2013-11-26 17:46:00,
2013-11-26 11:51:00,29.1,14.5,30.43,North,0,12.0,19.0,54,0.00,,,0.00,VWS V14.01,2013-11-26 17:51:00,
2013-11-26 11:56:00,29.5,14.5,30.43,North,354,12.0,19.0,53,0.00,,,0.00,VWS V14.01,2013-11-26 17:56:00,
2013-11-26 12:01:00,29.7,14.7,30.43,North,359,13.0,19.0,53,0.00,,,0.00,VWS V14.01,2013-11-26 18:01:00,
2013-11-26 12:06:00,30.0,15.4,30.43,NNE,31,10.0,16.0,54,0.00,,,0.00,VWS V14.01,2013-11-26 18:06:00,
2013-11-26 12:11:00,29.8,14.3,30.43,North,354,7.0,19.0,52,0.00,,,0.00,VWS V14.01,2013-11-26 18:11:00,
2013-11-26 12:16:00,30.0,14.5,30.43,North,0,8.0,19.0,52,0.00,,,0.00,VWS V14.01,2013-11-26 18:16:00,
2013-11-26 12:21:00,29.8,13.9,30.44,North,357,10.0,17.0,51,0.00,,,0.00,VWS V14.01,2013-11-26 18:21:00,
2013-11-26 12:26:00,30.1,13.3,30.44,North,359,13.0,17.0,49,0.00,,,0.00,VWS V14.01,2013-11-26 18:26:00,
2013-11-26 12:31:00,30.3,14.4,30.44,North,354,12.0,19.0,51,0.00,,,0.00,VWS V14.01,2013-11-26 18:31:00,
2013-11-26 12:36:00,30.6,15.9,30.43,NE,42,6.0,14.0,54,0.00,,,0.00,VWS V14.01,2013-11-26 18:36:00,
2013-11-26 12:41:00,30.4,12.6,30.43,North,354,13.0,20.0,47,0.00,,,0.00,VWS V14.01,2013-11-26 18:41:00,
2013-11-26 12:46:00,30.1,14.2,30.43,North,0,7.0,20.0,51,0.00,,,0.00,VWS V14.01,2013-11-26 18:46:00,
2013-11-26 12:51:00,30.6,15.5,30.43,North,359,9.0,14.0,53,0.00,,,0.00,VWS V14.01,2013-11-26 18:51:00,
2013-11-26 12:56:00,30.3,12.5,30.43,North,353,17.0,18.0,47,0.00,,,0.00,VWS V14.01,2013-11-26 18:56:00,
2013-11-26 13:01:00,30.6,14.2,30.43,North,0,12.0,22.0,50,0.00,,,0.00,VWS V14.01,2013-11-26 19:01:00,
2013-11-26 13:06:00,30.3,12.5,30.42,North,359,10.0,18.0,47,0.00,,,0.00,VWS V14.01,2013-11-26 19:06:00,
2013-11-26 13:11:00,30.4,12.1,30.42,North,6,11.0,18.0,46,0.00,,,0.00,VWS V14.01,2013-11-26 19:11:00,
2013-11-26 13:17:00,30.4,12.1,30.42,North,359,17.0,21.0,46,0.00,,,0.00,VWS V14.01,2013-11-26 19:17:00,
2013-11-26 13:22:00,30.6,13.7,30.42,North,0,10.0,19.0,49,0.00,,,0.00,VWS V14.01,2013-11-26 19:22:00,
2013-11-26 13:27:00,30.6,11.8,30.42,North,359,7.0,19.0,45,0.00,,,0.00,VWS V14.01,2013-11-26 19:27:00,
2013-11-26 13:32:00,30.7,12.9,30.42,North,0,8.0,19.0,47,0.00,,,0.00,VWS V14.01,2013-11-26 19:32:00,
2013-11-26 13:37:00,30.7,12.9,30.40,North,356,14.0,14.0,47,0.00,,,0.00,VWS V14.01,2013-11-26 19:37:00,
2013-11-26 13:41:00,30.7,10.9,30.40,NNW,347,13.0,19.0,43,0.00,,,0.00,VWS V14.01,2013-11-26 19:41:00,
2013-11-26 13:46:00,30.9,12.6,30.40,North,0,10.0,19.0,46,0.00,,,0.00,VWS V14.01,2013-11-26 19:46:00,
2013-11-26 13:52:00,30.9,12.1,30.40,North,359,16.0,17.0,45,0.00,,,0.00,VWS V14.01,2013-11-26 19:52:00,
2013-11-26 13:57:00,31.0,12.7,30.40,NNE,31,7.0,17.0,46,0.00,,,0.00,VWS V14.01,2013-11-26 19:57:00,
2013-11-26 14:02:00,31.0,10.1,30.39,North,0,8.0,19.0,41,0.00,,,0.00,VWS V14.01,2013-11-26 20:02:00,
2013-11-26 14:07:00,31.3,11.4,30.39,North,354,9.0,14.0,43,0.00,,,0.00,VWS V14.01,2013-11-26 20:07:00,
2013-11-26 14:12:00,31.5,7.6,30.39,North,349,10.0,17.0,36,0.00,,,0.00,VWS V14.01,2013-11-26 20:12:00,
2013-11-26 14:17:00,31.3,6.8,30.39,North,359,17.0,18.0,35,0.00,,,0.00,VWS V14.01,2013-11-26 20:17:00,
2013-11-26 14:22:00,31.6,8.9,30.39,North,10,6.0,17.0,38,0.00,,,0.00,VWS V14.01,2013-11-26 20:22:00,
2013-11-26 14:27:00,31.5,10.5,30.39,North,353,10.0,17.0,41,0.00,,,0.00,VWS V14.01,2013-11-26 20:27:00,
2013-11-26 14:32:00,31.6,8.3,30.38,North,359,17.0,20.0,37,0.00,,,0.00,VWS V14.01,2013-11-26 20:32:00,
2013-11-26 14:37:00,31.3,6.8,30.38,North,10,10.0,17.0,35,0.00,,,0.00,VWS V14.01,2013-11-26 20:37:00,
2013-11-26 14:42:00,31.3,8.6,30.38,North,356,12.0,19.0,38,0.00,,,0.00,VWS V14.01,2013-11-26 20:42:00,
2013-11-26 14:47:00,31.5,7.6,30.38,North,1,8.0,19.0,36,0.00,,,0.00,VWS V14.01,2013-11-26 20:47:00,
2013-11-26 14:52:00,31.6,7.1,30.38,North,357,12.0,16.0,35,0.00,,,0.00,VWS V14.01,2013-11-26 20:52:00,
2013-11-26 14:57:00,31.6,7.7,30.38,NNE,17,9.0,16.0,36,0.00,,,0.00,VWS V14.01,2013-11-26 20:57:00,
2013-11-26 15:02:00,31.5,5.7,30.38,North,357,14.0,17.0,33,0.00,,,0.00,VWS V14.01,2013-11-26 21:02:00,
2013-11-26 15:07:00,31.5,8.2,30.38,NNE,14,9.0,17.0,37,0.00,,,0.00,VWS V14.01,2013-11-26 21:07:00,
2013-11-26 15:12:00,31.6,5.1,30.38,North,7,7.0,17.0,32,0.00,,,0.00,VWS V14.01,2013-11-26 21:12:00,
2013-11-26 15:17:00,31.6,5.8,30.39,North,359,10.0,17.0,33,0.00,,,0.00,VWS V14.01,2013-11-26 21:17:00,
2013-11-26 15:22:00,31.6,4.4,30.39,North,359,9.0,13.0,31,0.00,,,0.00,VWS V14.01,2013-11-26 21:22:00,
2013-11-26 15:27:00,31.6,4.4,30.39,North,0,12.0,17.0,31,0.00,,,0.00,VWS V14.01,2013-11-26 21:27:00,
2013-11-26 15:32:00,31.8,7.3,30.39,North,359,10.0,17.0,35,0.00,,,0.00,VWS V14.01,2013-11-26 21:32:00,
2013-11-26 15:37:00,31.8,6.0,30.39,North,354,10.0,13.0,33,0.00,,,0.00,VWS V14.01,2013-11-26 21:37:00,
2013-11-26 15:42:00,31.6,5.1,30.39,North,356,13.0,17.0,32,0.00,,,0.00,VWS V14.01,2013-11-26 21:42:00,
2013-11-26 15:47:00,31.6,4.4,30.39,North,353,11.0,17.0,31,0.00,,,0.00,VWS V14.01,2013-11-26 21:47:00,
2013-11-26 15:52:00,31.6,3.0,30.39,North,359,12.0,16.0,29,0.00,,,0.00,VWS V14.01,2013-11-26 21:52:00,
2013-11-26 15:57:00,31.8,3.9,30.39,North,354,10.0,16.0,30,0.00,,,0.00,VWS V14.01,2013-11-26 21:57:00,
2013-11-26 16:02:00,31.6,1.5,30.39,North,0,5.0,17.0,27,0.00,,,0.00,VWS V14.01,2013-11-26 22:02:00,
2013-11-26 16:07:00,31.6,1.5,30.39,North,359,13.0,14.0,27,0.00,,,0.00,VWS V14.01,2013-11-26 22:07:00,
2013-11-26 16:12:00,31.5,2.2,30.39,North,6,11.0,19.0,28,0.00,,,0.00,VWS V14.01,2013-11-26 22:12:00,
2013-11-26 16:17:00,31.5,3.7,30.39,North,354,9.0,19.0,30,0.00,,,0.00,VWS V14.01,2013-11-26 22:17:00,
2013-11-26 16:22:00,31.5,1.4,30.39,North,356,9.0,18.0,27,0.00,,,0.00,VWS V14.01,2013-11-26 22:22:00,
2013-11-26 16:27:00,31.5,1.4,30.39,NNW,335,10.0,18.0,27,0.00,,,0.00,VWS V14.01,2013-11-26 22:27:00,
2013-11-26 16:32:00,31.5,1.4,30.40,North,0,10.0,18.0,27,0.00,,,0.00,VWS V14.01,2013-11-26 22:32:00,
2013-11-26 16:37:00,31.3,2.0,30.40,North,359,12.0,14.0,28,0.00,,,0.00,VWS V14.01,2013-11-26 22:37:00,
2013-11-26 16:42:00,31.2,1.9,30.40,North,0,12.0,14.0,28,0.00,,,0.00,VWS V14.01,2013-11-26 22:42:00,
2013-11-26 16:47:00,31.0,1.7,30.40,North,357,13.0,17.0,28,0.00,,,0.00,VWS V14.01,2013-11-26 22:47:00,
2013-11-26 16:52:00,30.9,1.6,30.40,North,356,10.0,13.0,28,0.00,,,0.00,VWS V14.01,2013-11-26 22:52:00,
2013-11-26 16:57:00,30.9,5.2,30.40,North,0,6.0,13.0,33,0.00,,,0.00,VWS V14.01,2013-11-26 22:57:00,
2013-11-26 17:02:00,30.7,3.7,30.40,North,0,6.0,13.0,31,0.00,,,0.00,VWS V14.01,2013-11-26 23:02:00,
2013-11-26 17:07:00,30.6,3.6,30.40,North,356,7.0,10.0,31,0.00,,,0.00,VWS V14.01,2013-11-26 23:07:00,
2013-11-26 17:12:00,30.4,5.4,30.40,North,0,5.0,10.0,34,0.00,,,0.00,VWS V14.01,2013-11-26 23:12:00,
2013-11-26 17:17:00,30.1,5.8,30.40,North,1,4.0,10.0,35,0.00,,,0.00,VWS V14.01,2013-11-26 23:17:00,
2013-11-26 17:22:00,30.0,5.1,30.40,North,354,5.0,8.0,34,0.00,,,0.00,VWS V14.01,2013-11-26 23:22:00,
2013-11-26 17:27:00,29.7,2.1,30.40,North,10,3.0,10.0,30,0.00,,,0.00,VWS V14.01,2013-11-26 23:27:00,
2013-11-26 17:32:00,29.5,3.3,30.41,North,0,4.0,10.0,32,0.00,,,0.00,VWS V14.01,2013-11-26 23:32:00,
2013-11-26 17:37:00,29.4,5.8,30.41,NNE,21,5.0,7.0,36,0.00,,,0.00,VWS V14.01,2013-11-26 23:37:00,
2013-11-26 17:42:00,29.3,5.7,30.41,North,7,2.0,7.0,36,0.00,,,0.00,VWS V14.01,2013-11-26 23:42:00,
2013-11-26 17:47:00,29.1,7.8,30.41,NNE,18,5.0,7.0,40,0.00,,,0.00,VWS V14.01,2013-11-26 23:47:00,
2013-11-26 17:52:00,29.0,4.8,30.41,North,359,8.0,9.0,35,0.00,,,0.00,VWS V14.01,2013-11-26 23:52:00,
2013-11-26 17:57:00,28.8,5.2,30.41,North,3,5.0,9.0,36,0.00,,,0.00,VWS V14.01,2013-11-26 23:57:00,
2013-11-26 18:02:00,28.7,5.1,30.41,North,10,2.0,9.0,36,0.00,,,0.00,VWS V14.01,2013-11-27 00:02:00,
2013-11-26 18:07:00,28.7,5.1,30.41,North,0,3.0,7.0,36,0.00,,,0.00,VWS V14.01,2013-11-27 00:07:00,
2013-11-26 18:12:00,28.5,6.1,30.41,North,354,5.0,7.0,38,0.00,,,0.00,VWS V14.01,2013-11-27 00:12:00,
2013-11-26 18:17:00,28.4,4.2,30.41,North,359,5.0,7.0,35,0.00,,,0.00,VWS V14.01,2013-11-27 00:17:00,
2013-11-26 18:22:00,28.2,4.7,30.41,North,354,4.0,7.0,36,0.00,,,0.00,VWS V14.01,2013-11-27 00:22:00,
2013-11-26 18:27:00,28.2,5.9,30.41,North,0,3.0,7.0,38,0.00,,,0.00,VWS V14.01,2013-11-27 00:27:00,
2013-11-26 18:32:00,28.2,5.9,30.41,NNE,14,5.0,7.0,38,0.00,,,0.00,VWS V14.01,2013-11-27 00:32:00,
2013-11-26 18:37:00,28.1,4.6,30.41,North,354,5.0,7.0,36,0.00,,,0.00,VWS V14.01,2013-11-27 00:37:00,
2013-11-26 18:42:00,27.9,5.6,30.41,North,0,5.0,7.0,38,0.00,,,0.00,VWS V14.01,2013-11-27 00:42:00,
2013-11-26 18:47:00,27.8,7.2,30.41,North,0,2.0,7.0,41,0.00,,,0.00,VWS V14.01,2013-11-27 00:47:00,
2013-11-26 18:52:00,27.6,6.4,30.41,North,6,2.0,5.0,40,0.00,,,0.00,VWS V14.01,2013-11-27 00:52:00,
2013-11-26 18:57:00,27.5,6.4,30.41,North,0,3.0,5.0,40,0.00,,,0.00,VWS V14.01,2013-11-27 00:57:00,
2013-11-26 19:02:00,27.3,5.1,30.42,North,11,2.0,5.0,38,0.00,,,0.00,VWS V14.01,2013-11-27 01:02:00,
2013-11-26 19:07:00,27.2,5.5,30.42,NNE,23,2.0,7.0,39,0.00,,,0.00,VWS V14.01,2013-11-27 01:07:00,
2013-11-26 19:12:00,27.2,8.2,30.42,NNE,30,2.0,7.0,44,0.00,,,0.00,VWS V14.01,2013-11-27 01:12:00,
2013-11-26 19:17:00,27.0,8.5,30.42,North,0,3.0,7.0,45,0.00,,,0.00,VWS V14.01,2013-11-27 01:17:00,
2013-11-26 19:22:00,27.0,4.2,30.42,North,11,4.0,7.0,37,0.00,,,0.00,VWS V14.01,2013-11-27 01:22:00,
2013-11-26 19:27:00,27.0,4.8,30.42,North,6,3.0,7.0,38,0.00,,,0.00,VWS V14.01,2013-11-27 01:27:00,
2013-11-26 19:33:00,27.0,4.8,30.42,North,0,3.0,7.0,38,0.00,,,0.00,VWS V14.01,2013-11-27 01:33:00,
2013-11-26 19:37:00,26.9,5.3,30.42,North,10,2.0,5.0,39,0.00,,,0.00,VWS V14.01,2013-11-27 01:37:00,
2013-11-26 19:42:00,26.9,7.9,30.42,North,354,3.0,6.0,44,0.00,,,0.00,VWS V14.01,2013-11-27 01:42:00,
2013-11-26 19:48:00,26.6,8.1,30.41,North,0,1.0,6.0,45,0.00,,,0.00,VWS V14.01,2013-11-27 01:48:00,
2013-11-26 19:53:00,26.4,6.4,30.41,North,10,2.0,6.0,42,0.00,,,0.00,VWS V14.01,2013-11-27 01:53:00,
2013-11-26 19:58:00,26.4,4.8,30.41,North,354,2.0,6.0,39,0.00,,,0.00,VWS V14.01,2013-11-27 01:58:00,
2013-11-26 20:03:00,26.4,4.8,30.42,North,3,2.0,6.0,39,0.00,,,0.00,VWS V14.01,2013-11-27 02:03:00,
2013-11-26 20:08:00,26.3,7.4,30.42,North,4,2.0,5.0,44,0.00,,,0.00,VWS V14.01,2013-11-27 02:08:00,
2013-11-26 20:13:00,26.3,6.3,30.42,North,1,4.0,5.0,42,0.00,,,0.00,VWS V14.01,2013-11-27 02:13:00,
2013-11-26 20:18:00,26.3,4.7,30.42,North,6,2.0,6.0,39,0.00,,,0.00,VWS V14.01,2013-11-27 02:18:00,
2013-11-26 20:23:00,26.1,3.4,30.42,NNE,18,2.0,5.0,37,0.00,,,0.00,VWS V14.01,2013-11-27 02:23:00,
2013-11-26 20:28:00,26.0,3.9,30.42,NNE,20,2.0,5.0,38,0.00,,,0.00,VWS V14.01,2013-11-27 02:28:00,
2013-11-26 20:33:00,26.0,4.4,30.42,NNE,23,2.0,5.0,39,0.00,,,0.00,VWS V14.01,2013-11-27 02:33:00,
2013-11-26 20:38:00,25.8,4.8,30.42,NNE,18,0.0,3.0,40,0.00,,,0.00,VWS V14.01,2013-11-27 02:38:00,
2013-11-26 20:43:00,25.8,3.7,30.42,NNE,24,1.0,5.0,38,0.00,,,0.00,VWS V14.01,2013-11-27 02:43:00,
2013-11-26 20:48:00,25.8,3.1,30.43,NNE,21,3.0,5.0,37,0.00,,,0.00,VWS V14.01,2013-11-27 02:48:00,
2013-11-26 20:53:00,25.7,3.6,30.43,NNE,17,1.0,5.0,38,0.00,,,0.00,VWS V14.01,2013-11-27 02:53:00,
2013-11-26 20:58:00,25.7,3.0,30.43,NNE,17,0.0,5.0,37,0.00,,,0.00,VWS V14.01,2013-11-27 02:58:00,
2013-11-26 21:03:00,25.6,2.4,30.43,NNE,16,0.0,5.0,36,0.00,,,0.00,VWS V14.01,2013-11-27 03:03:00,
2013-11-26 21:08:00,25.6,4.6,30.43,NNE,16,2.0,2.0,40,0.00,,,0.00,VWS V14.01,2013-11-27 03:08:00,
2013-11-26 21:13:00,24.4,4.6,30.43,NNE,16,0.0,2.0,42,0.00,,,0.00,VWS V14.01,2013-11-27 03:13:00,
2013-11-26 21:18:00,22.9,5.2,30.44,NNE,16,0.0,2.0,46,0.00,,,0.00,VWS V14.01,2013-11-27 03:18:00,
2013-11-26 21:23:00,22.2,3.6,30.44,NNE,16,0.0,0.0,44,0.00,,,0.00,VWS V14.01,2013-11-27 03:23:00,
2013-11-26 21:28:00,21.9,3.3,30.44,NNE,14,0.0,0.0,44,0.00,,,0.00,VWS V14.01,2013-11-27 03:28:00,
2013-11-26 21:33:00,21.8,3.7,30.44,NNE,16,0.0,0.0,45,0.00,,,0.00,VWS V14.01,2013-11-27 03:33:00,
2013-11-26 21:38:00,21.9,4.8,30.44,NNE,16,0.0,0.0,47,0.00,,,0.00,VWS V14.01,2013-11-27 03:38:00,
2013-11-26 21:43:00,21.3,4.2,30.44,NNW,336,1.0,2.0,47,0.00,,,0.00,VWS V14.01,2013-11-27 03:43:00,
2013-11-26 21:48:00,19.7,4.5,30.45,NNW,336,0.0,0.0,51,0.00,,,0.00,VWS V14.01,2013-11-27 03:48:00,
2013-11-26 21:53:00,18.9,4.2,30.45,NNW,336,0.0,0.0,52,0.00,,,0.00,VWS V14.01,2013-11-27 03:53:00,
2013-11-26 21:58:00,18.4,3.7,30.45,NNW,336,0.0,0.0,52,0.00,,,0.00,VWS V14.01,2013-11-27 03:58:00,
2013-11-26 22:03:00,18.3,3.2,30.45,NNW,336,0.0,0.0,51,0.00,,,0.00,VWS V14.01,2013-11-27 04:03:00,
2013-11-26 22:08:00,18.1,2.6,30.45,NNW,336,0.0,0.0,50,0.00,,,0.00,VWS V14.01,2013-11-27 04:08:00,
2013-11-26 22:13:00,18.3,2.8,30.45,NNW,332,0.0,0.0,50,0.00,,,0.00,VWS V14.01,2013-11-27 04:13:00,
2013-11-26 22:18:00,18.4,2.0,30.45,NNW,332,0.0,0.0,48,0.00,,,0.00,VWS V14.01,2013-11-27 04:18:00,
2013-11-26 22:23:00,18.6,2.2,30.45,NNW,332,0.0,0.0,48,0.00,,,0.00,VWS V14.01,2013-11-27 04:23:00,
2013-11-26 22:28:00,18.8,1.9,30.45,NNW,332,0.0,0.0,47,0.00,,,0.00,VWS V14.01,2013-11-27 04:28:00,
2013-11-26 22:33:00,19.2,2.7,30.45,NNW,332,0.0,0.0,48,0.00,,,0.00,VWS V14.01,2013-11-27 04:33:00,
2013-11-26 22:38:00,19.5,3.5,30.45,NNW,332,0.0,0.0,49,0.00,,,0.00,VWS V14.01,2013-11-27 04:38:00,
2013-11-26 22:43:00,19.4,2.5,30.45,NNW,332,0.0,0.0,47,0.00,,,0.00,VWS V14.01,2013-11-27 04:43:00,
2013-11-26 22:48:00,18.4,3.7,30.44,NNW,332,2.0,2.0,52,0.00,,,0.00,VWS V14.01,2013-11-27 04:48:00,
2013-11-26 22:53:00,17.3,4.3,30.44,NNW,332,0.0,2.0,56,0.00,,,0.00,VWS V14.01,2013-11-27 04:53:00,
2013-11-26 22:58:00,16.7,4.5,30.44,NNW,332,0.0,2.0,58,0.00,,,0.00,VWS V14.01,2013-11-27 04:58:00,
2013-11-26 23:01:00,16.4,4.6,30.44,NNW,332,0.0,2.0,59,0.00,,,0.00,VWS V14.01,2013-11-27 05:01:00,
2013-11-26 23:06:00,16.1,4.7,30.46,NNW,332,0.0,0.0,60,0.00,,,0.00,VWS V14.01,2013-11-27 05:06:00,
2013-11-26 23:11:00,15.9,4.8,30.46,NNW,332,0.0,0.0,61,0.00,,,0.00,VWS V14.01,2013-11-27 05:11:00,
2013-11-26 23:16:00,15.9,4.5,30.46,NNW,332,0.0,0.0,60,0.00,,,0.00,VWS V14.01,2013-11-27 05:16:00,
2013-11-26 23:21:00,15.7,4.3,30.45,NNW,332,0.0,0.0,60,0.00,,,0.00,VWS V14.01,2013-11-27 05:21:00,
2013-11-26 23:26:00,15.6,4.2,30.45,NNW,332,0.0,0.0,60,0.00,,,0.00,VWS V14.01,2013-11-27 05:26:00,
2013-11-26 23:35:00,15.9,4.1,30.46,NNW,332,0.0,0.0,59,0.00,,,0.00,VWS V14.01,2013-11-27 05:35:00,
2013-11-26 23:40:00,16.2,4.0,30.46,NNW,332,0.0,0.0,58,0.00,,,0.00,VWS V14.01,2013-11-27 05:40:00,
2013-11-26 23:45:00,16.2,3.7,30.46,NNW,332,0.0,0.0,57,0.00,,,0.00,VWS V14.01,2013-11-27 05:45:00,
2013-11-26 23:50:00,16.2,3.7,30.46,NNW,332,0.0,0.0,57,0.00,,,0.00,VWS V14.01,2013-11-27 05:50:00,
2013-11-26 23:55:00,16.2,3.7,30.46,NNW,332,0.0,0.0,57,0.00,,,0.00,VWS V14.01,2013-11-27 05:55:00,